Time;durP1;ratioP1;P1;durP2;ratioP2;P2;SDS_P1;SDS_P2;PMS_P1;PMS_P2;Temp;Humidity;BMP_temperature;BMP_pressure;BME280_temperature;BME280_humidity;BME280_pressure;Samples;Min_cycle;Max_cycle;Signal;HPM_P1;HPM_P2
2022/09/03 00:00:44;;;;;;;;;;;;;;;19.53;46.47;95142.31;5109126;28;20380;-73
2022/09/03 00:03:13;;;;;;;;;;;;;;;19.60;46.29;95138.97;5110298;28;20469;-74
2022/09/03 00:05:44;;;;;;;;;;;;;;;19.58;45.77;95144.72;5090929;28;20013;-73
2022/09/03 00:08:17;;;;;;;;;;;;;;;19.63;46.19;95146.38;5092187;28;20473;-74
2022/09/03 00:10:53;;;;;;;;;;;;;;;19.59;46.13;95149.00;5105602;28;20082;-74
2022/09/03 00:13:22;;;;;;;;;;;;;;;19.62;46.04;95142.13;5111220;28;20004;-73
2022/09/03 00:15:48;;;;;;;;;;;;;;;19.51;46.12;95146.53;5111199;28;20009;-74
2022/09/03 00:18:19;;;;;;;;;;;;;;;19.32;46.59;95140.06;5110083;28;20016;-73
2022/09/03 00:20:58;;;;;;;;;;;;;;;19.40;46.37;95135.56;5108878;28;20016;-73
2022/09/03 00:23:25;;;;;;;;;;;;;;;19.42;46.77;95141.38;5110865;28;20048;-74
2022/09/03 00:25:56;;;;;;;;;;;;;;;19.43;46.54;95134.84;5101241;28;20009;-73
2022/09/03 00:28:25;;;;;;;;;;;;;;;19.31;46.63;95143.13;5111746;28;20060;-72
2022/09/03 00:30:55;;;;;;;;;;;;;;;19.13;47.18;95130.09;5108624;27;20031;-73
2022/09/03 00:33:22;;;;;;;;;;;;;;;18.97;47.89;95134.81;5110690;28;20360;-73
2022/09/03 00:36:08;;;;;;;;;;;;;;;18.92;47.67;95140.50;5110360;28;20643;-73
2022/09/03 00:38:33;;;;;;;;;;;;;;;18.80;48.20;95127.19;5102401;28;20111;-73
2022/09/03 00:41:01;;;;;;;;;;;;;;;18.80;48.20;95132.56;5111414;28;20483;-73
2022/09/03 00:43:27;;;;;;;;;;;;;;;18.71;48.63;95124.69;5110294;28;20012;-73
2022/09/03 00:45:53;;;;;;;;;;;;;;;18.74;48.33;95129.38;5108397;28;20115;-74
2022/09/03 00:48:18;;;;;;;;;;;;;;;18.62;48.77;95134.88;5110461;28;20004;-73
2022/09/03 00:50:52;;;;;;;;;;;;;;;18.62;49.04;95129.50;5109391;28;20013;-74
2022/09/03 00:53:21;;;;;;;;;;;;;;;18.61;48.93;95136.78;5111330;28;20503;-73
2022/09/03 00:55:51;;;;;;;;;;;;;;;18.58;49.05;95134.03;5099766;28;20591;-74
2022/09/03 00:58:25;;;;;;;;;;;;;;;18.55;49.36;95137.44;5096976;28;20012;-73
2022/09/03 01:00:51;;;;;;;;;;;;;;;18.52;49.19;95133.53;5106912;28;20012;-74
2022/09/03 01:03:38;;;;;;;;;;;;;;;18.51;49.42;95141.97;5106990;28;20008;-74
2022/09/03 01:06:23;;;;;;;;;;;;;;;18.59;49.43;95141.00;5110512;28;20012;-74
2022/09/03 01:09:10;;;;;;;;;;;;;;;18.58;49.26;95140.22;5111379;28;20012;-73
2022/09/03 01:11:48;;;;;;;;;;;;;;;18.47;49.73;95136.50;5104738;28;20012;-73
2022/09/03 01:14:40;;;;;;;;;;;;;;;18.44;50.07;95134.53;5109481;28;20004;-73
2022/09/03 01:17:15;;;;;;;;;;;;;;;18.35;50.04;95145.50;5085173;28;20021;-73
2022/09/03 01:19:44;;;;;;;;;;;;;;;18.25;50.01;95137.97;5108860;28;20468;-73
2022/09/03 01:22:20;;;;;;;;;;;;;;;18.21;50.53;95137.13;5109923;28;20009;-73
2022/09/03 01:24:45;;;;;;;;;;;;;;;18.09;50.62;95140.72;5109135;28;20020;-74
2022/09/03 01:27:17;;;;;;;;;;;;;;;18.00;50.97;95137.44;5109054;28;20008;-74
2022/09/03 01:29:48;;;;;;;;;;;;;;;17.97;51.28;95146.22;5104845;28;20023;-73
2022/09/03 01:32:43;;;;;;;;;;;;;;;17.90;51.26;95144.13;5108162;28;20428;-73
2022/09/03 01:35:15;;;;;;;;;;;;;;;17.63;51.68;95102.75;5088477;28;20019;-73
2022/09/03 01:37:52;;;;;;;;;;;;;;;17.71;52.36;95132.50;5107810;27;20416;-74
2022/09/03 01:40:27;;;;;;;;;;;;;;;17.79;52.08;95128.91;5101687;28;20457;-73
2022/09/03 01:42:53;;;;;;;;;;;;;;;17.78;52.01;95121.97;5110272;28;20017;-73
2022/09/03 01:45:34;;;;;;;;;;;;;;;17.76;52.17;95129.56;5106009;28;20128;-73
2022/09/03 01:48:15;;;;;;;;;;;;;;;17.73;52.39;95122.22;5104756;28;20030;-74
2022/09/03 01:50:56;;;;;;;;;;;;;;;17.72;52.04;95120.63;5109992;28;20020;-73
2022/09/03 01:53:40;;;;;;;;;;;;;;;17.72;52.56;95128.72;5107852;28;20016;-73
2022/09/03 01:56:16;;;;;;;;;;;;;;;17.79;52.15;95126.19;5109409;28;20061;-73
2022/09/03 01:58:44;;;;;;;;;;;;;;;17.70;52.39;95123.66;5110101;28;20016;-73
2022/09/03 02:01:16;;;;;;;;;;;;;;;17.64;53.02;95125.84;5109175;28;20094;-73
2022/09/03 02:03:43;;;;;;;;;;;;;;;17.78;52.56;95117.34;5108779;28;20554;-73
2022/09/03 02:06:09;;;;;;;;;;;;;;;17.74;52.26;95123.78;5109541;28;20017;-73
2022/09/03 02:08:34;;;;;;;;;;;;;;;17.55;53.01;95119.84;5110820;28;20008;-74
2022/09/03 02:11:01;;;;;;;;;;;;;;;17.54;52.95;95120.22;5108350;28;20012;-72
2022/09/03 02:13:34;;;;;;;;;;;;;;;17.34;53.42;95119.34;5110367;28;20012;-73
2022/09/03 02:16:05;;;;;;;;;;;;;;;17.32;53.36;95118.94;5106598;28;20034;-74
2022/09/03 02:18:35;;;;;;;;;;;;;;;17.28;53.43;95118.84;5109079;28;20017;-73
2022/09/03 02:21:01;;;;;;;;;;;;;;;17.21;53.77;95117.88;5106899;28;20013;-73
2022/09/03 02:23:27;;;;;;;;;;;;;;;17.19;53.68;95120.13;5110840;28;20013;-73
2022/09/03 02:25:56;;;;;;;;;;;;;;;17.13;54.46;95136.50;5134321;27;20019;-73
2022/09/03 02:28:22;;;;;;;;;;;;;;;17.10;54.53;95131.06;5113000;28;20019;-73
2022/09/03 02:30:47;;;;;;;;;;;;;;;17.03;54.99;95130.88;5113364;27;20009;-73
2022/09/03 02:33:13;;;;;;;;;;;;;;;16.95;55.06;95131.81;5112976;28;20023;-73
2022/09/03 02:35:39;;;;;;;;;;;;;;;17.00;54.66;95124.28;5111043;28;20012;-73
2022/09/03 02:38:19;;;;;;;;;;;;;;;16.98;55.00;95134.56;5112757;28;20061;-74
2022/09/03 02:40:44;;;;;;;;;;;;;;;16.97;54.86;95133.03;5113212;28;20013;-73
2022/09/03 02:43:14;;;;;;;;;;;;;;;17.00;54.85;95135.03;5111909;28;20028;-72
2022/09/03 02:45:44;;;;;;;;;;;;;;;16.93;55.56;95132.16;5110316;28;20031;-74
2022/09/03 02:48:10;;;;;;;;;;;;;;;16.92;55.58;95138.66;5112592;28;20103;-73
2022/09/03 02:53:09;;;;;;;;;;;;;;;16.87;55.87;95139.69;5090456;28;20112;-67
2022/09/03 02:55:34;;;;;;;;;;;;;;;16.88;55.81;95130.50;5089351;28;20123;-69
2022/09/03 02:58:00;;;;;;;;;;;;;;;16.84;55.96;95126.94;5096846;28;20017;-68
2022/09/03 03:00:27;;;;;;;;;;;;;;;16.86;55.75;95126.59;5091398;28;20491;-68
2022/09/03 03:02:54;;;;;;;;;;;;;;;16.84;55.71;95123.47;5074220;28;20015;-68
2022/09/03 03:05:23;;;;;;;;;;;;;;;16.81;56.12;95124.16;5091493;28;20028;-68
2022/09/03 03:07:48;;;;;;;;;;;;;;;16.73;56.78;95125.09;5076515;28;20109;-68
2022/09/03 03:10:14;;;;;;;;;;;;;;;16.78;56.50;95119.47;5080347;28;20111;-68
2022/09/03 03:12:39;;;;;;;;;;;;;;;16.82;56.55;95114.97;5091454;28;20482;-70
2022/09/03 03:15:05;;;;;;;;;;;;;;;16.79;56.56;95119.13;5091608;28;20095;-68
2022/09/03 03:17:30;;;;;;;;;;;;;;;16.73;56.51;95117.03;5091882;28;20473;-68
2022/09/03 03:19:55;;;;;;;;;;;;;;;16.75;56.52;95117.47;5073868;28;20013;-67
2022/09/03 03:22:20;;;;;;;;;;;;;;;16.83;56.37;95122.69;5100151;28;20377;-66
2022/09/03 03:24:49;;;;;;;;;;;;;;;16.81;56.75;95121.47;5091785;28;20067;-65
2022/09/03 03:27:14;;;;;;;;;;;;;;;16.83;56.34;95116.53;5091694;28;20073;-69
2022/09/03 03:29:39;;;;;;;;;;;;;;;16.82;56.33;95125.72;5091621;28;20469;-67
2022/09/03 03:32:05;;;;;;;;;;;;;;;16.83;56.42;95124.59;5090318;28;20016;-67
2022/09/03 03:34:30;;;;;;;;;;;;;;;16.84;56.30;95126.16;5073470;28;20485;-66
2022/09/03 03:36:55;;;;;;;;;;;;;;;16.85;56.23;95135.78;5092653;28;20590;-67
2022/09/03 03:39:20;;;;;;;;;;;;;;;16.76;56.74;95135.16;5073565;28;20061;-66
2022/09/03 03:41:46;;;;;;;;;;;;;;;16.75;56.48;95133.59;5091587;28;20009;-66
2022/09/03 03:44:11;;;;;;;;;;;;;;;16.75;57.10;95141.66;5069631;28;20017;-66
2022/09/03 03:46:37;;;;;;;;;;;;;;;16.17;56.85;95063.31;5084202;28;20064;-66
2022/09/03 03:49:05;;;;;;;;;;;;;;;16.69;56.82;95143.78;5074039;28;20492;-66
2022/09/03 03:51:31;;;;;;;;;;;;;;;16.67;56.93;95147.91;5089712;28;20028;-66
2022/09/03 03:53:57;;;;;;;;;;;;;;;16.62;57.22;95147.03;5092032;28;20005;-66
2022/09/03 03:56:22;;;;;;;;;;;;;;;16.62;57.38;95135.50;5073301;28;20061;-66
2022/09/03 03:58:48;;;;;;;;;;;;;;;16.62;57.39;95138.19;5091840;28;20461;-66
2022/09/03 04:01:15;;;;;;;;;;;;;;;16.67;57.00;95132.56;5072875;28;20418;-67
2022/09/03 04:03:40;;;;;;;;;;;;;;;16.64;57.36;95136.75;5089817;28;20009;-68
2022/09/03 04:06:07;;;;;;;;;;;;;;;16.70;57.37;95123.06;5092135;28;20031;-70
2022/09/03 04:08:36;;;;;;;;;;;;;;;16.68;57.26;95125.28;5091171;28;20058;-66
2022/09/03 04:11:02;;;;;;;;;;;;;;;16.79;56.84;95129.09;5091083;28;20360;-67
2022/09/03 04:13:31;;;;;;;;;;;;;;;16.82;56.83;95123.81;5072254;28;20017;-66
2022/09/03 04:16:08;;;;;;;;;;;;;;;16.83;56.57;95120.00;5071175;28;20016;-68
2022/09/03 04:18:36;;;;;;;;;;;;;;;16.86;56.80;95130.06;5091724;28;20017;-67
2022/09/03 04:21:03;;;;;;;;;;;;;;;16.97;56.77;95138.41;5090036;28;20370;-67
2022/09/03 04:23:29;;;;;;;;;;;;;;;17.12;56.31;95131.50;5072960;28;20013;-66
2022/09/03 04:25:54;;;;;;;;;;;;;;;17.21;55.92;95134.03;5071455;28;20010;-67
2022/09/03 04:28:19;;;;;;;;;;;;;;;17.23;55.97;95131.75;5053749;28;20355;-66
2022/09/03 04:30:44;;;;;;;;;;;;;;;17.48;55.66;95137.75;5077967;28;20059;-67
2022/09/03 04:33:10;;;;;;;;;;;;;;;17.40;55.19;95134.09;5058522;28;20343;-67
2022/09/03 04:35:35;;;;;;;;;;;;;;;17.65;54.53;95140.84;5066828;28;20031;-66
2022/09/03 04:38:00;;;;;;;;;;;;;;;17.76;54.57;95143.03;5091214;28;20009;-67
2022/09/03 04:40:26;;;;;;;;;;;;;;;17.81;54.24;95140.88;5089673;28;20013;-67
2022/09/03 04:42:55;;;;;;;;;;;;;;;17.90;54.30;95144.13;5095926;28;20099;-67
2022/09/03 04:45:20;;;;;;;;;;;;;;;17.99;53.97;95143.19;5088305;28;20019;-67
2022/09/03 04:47:55;;;;;;;;;;;;;;;18.08;53.71;95144.56;5073154;28;20009;-65
2022/09/03 04:50:22;;;;;;;;;;;;;;;18.19;53.47;95144.78;5090336;28;20012;-64
2022/09/03 04:52:47;;;;;;;;;;;;;;;18.09;52.58;95151.50;5078810;28;20024;-65
2022/09/03 04:55:12;;;;;;;;;;;;;;;17.82;53.36;95165.88;5078604;28;20013;-64
2022/09/03 04:57:38;;;;;;;;;;;;;;;18.05;53.33;95163.31;5090061;28;20020;-65
2022/09/03 05:00:04;;;;;;;;;;;;;;;18.00;52.96;95172.44;5089742;28;20485;-66
2022/09/03 05:02:29;;;;;;;;;;;;;;;18.09;52.88;95166.88;5081548;28;20052;-65
2022/09/03 05:04:54;;;;;;;;;;;;;;;18.18;52.62;95170.16;5056162;28;20041;-64
2022/09/03 05:07:19;;;;;;;;;;;;;;;17.93;52.82;95169.59;5068452;28;20369;-65
2022/09/03 05:09:45;;;;;;;;;;;;;;;18.14;52.69;95163.91;5068790;28;20457;-67
2022/09/03 05:12:11;;;;;;;;;;;;;;;17.95;53.22;95167.31;5052933;28;20042;-66
2022/09/03 05:14:37;;;;;;;;;;;;;;;17.25;55.11;95183.25;5069564;28;20035;-64
2022/09/03 05:17:02;;;;;;;;;;;;;;;16.86;56.59;95188.38;5089481;28;20017;-65
2022/09/03 05:19:28;;;;;;;;;;;;;;;16.49;57.72;95187.72;5071706;28;20009;-64
2022/09/03 05:21:53;;;;;;;;;;;;;;;16.34;59.03;95189.97;5089984;28;20009;-65
2022/09/03 05:24:18;;;;;;;;;;;;;;;16.19;59.45;95197.94;5069922;28;20014;-64
2022/09/03 05:26:43;;;;;;;;;;;;;;;15.74;60.66;95204.22;5052228;28;20017;-66
2022/09/03 05:29:09;;;;;;;;;;;;;;;15.88;60.50;95215.41;5087114;28;20020;-64
2022/09/03 05:31:37;;;;;;;;;;;;;;;15.16;62.38;95216.84;5071448;28;20012;-64
2022/09/03 05:34:03;;;;;;;;;;;;;;;15.54;61.83;95211.22;5072159;28;20503;-64
2022/09/03 05:36:33;;;;;;;;;;;;;;;16.70;58.66;95201.72;5052326;28;20100;-64
2022/09/03 05:38:59;;;;;;;;;;;;;;;17.03;56.95;95198.03;5070432;28;20006;-64
2022/09/03 05:41:25;;;;;;;;;;;;;;;17.54;55.52;95201.66;5052523;28;20032;-63
2022/09/03 05:43:54;;;;;;;;;;;;;;;18.12;53.97;95196.56;5052661;28;20017;-65
2022/09/03 05:46:20;;;;;;;;;;;;;;;18.34;53.41;95191.66;5073179;28;20017;-65
2022/09/03 05:48:45;;;;;;;;;;;;;;;18.70;52.28;95195.91;5072363;28;20016;-65
2022/09/03 05:51:15;;;;;;;;;;;;;;;18.90;51.90;95196.69;5090484;28;20523;-65
2022/09/03 05:53:41;;;;;;;;;;;;;;;18.86;51.67;95203.91;5089189;28;20058;-65
2022/09/03 05:56:09;;;;;;;;;;;;;;;19.31;51.30;95207.84;5070025;28;20516;-66
2022/09/03 05:58:37;;;;;;;;;;;;;;;18.58;51.90;95209.44;5088678;28;20027;-66
2022/09/03 06:01:10;;;;;;;;;;;;;;;19.12;51.40;95206.72;5089835;28;20005;-66
2022/09/03 06:03:35;;;;;;;;;;;;;;;19.51;50.58;95197.78;5069744;28;20392;-65
2022/09/03 06:06:01;;;;;;;;;;;;;;;19.72;50.02;95200.88;5076266;28;20009;-65
2022/09/03 06:08:26;;;;;;;;;;;;;;;19.62;50.15;95206.88;5090059;28;20005;-65
2022/09/03 06:10:56;;;;;;;;;;;;;;;19.58;50.08;95219.50;5072061;28;20009;-65
2022/09/03 06:13:21;;;;;;;;;;;;;;;19.16;51.06;95215.66;5070742;28;20051;-66
2022/09/03 06:15:46;;;;;;;;;;;;;;;19.74;50.40;95214.78;5089192;28;20052;-66
2022/09/03 06:18:12;;;;;;;;;;;;;;;20.07;49.73;95208.75;5069518;28;20767;-67
2022/09/03 06:20:37;;;;;;;;;;;;;;;19.48;50.27;95205.44;5090293;28;20052;-68
2022/09/03 06:23:03;;;;;;;;;;;;;;;19.66;50.34;95211.19;5089748;28;20037;-68
2022/09/03 06:25:28;;;;;;;;;;;;;;;19.97;49.75;95212.84;5072000;28;20009;-67
2022/09/03 06:27:53;;;;;;;;;;;;;;;20.02;49.18;95221.78;5070781;28;20028;-69
2022/09/03 06:30:19;;;;;;;;;;;;;;;19.90;49.61;95217.34;5072001;28;20015;-66
2022/09/03 06:32:45;;;;;;;;;;;;;;;19.86;49.97;95216.50;5089098;28;20016;-68
2022/09/03 06:35:10;;;;;;;;;;;;;;;20.18;49.69;95217.81;5089812;28;20005;-67
2022/09/03 06:37:39;;;;;;;;;;;;;;;20.21;49.55;95224.38;5089099;28;20013;-67
2022/09/03 06:40:07;;;;;;;;;;;;;;;20.35;49.06;95226.53;5089780;28;20005;-67
2022/09/03 06:42:33;;;;;;;;;;;;;;;20.20;49.39;95239.03;5089716;28;20009;-67
2022/09/03 06:44:58;;;;;;;;;;;;;;;20.40;49.13;95240.50;5088523;28;20013;-67
2022/09/03 06:47:23;;;;;;;;;;;;;;;20.25;49.18;95244.91;5088771;28;20169;-67
2022/09/03 06:49:48;;;;;;;;;;;;;;;20.35;49.02;95243.50;5089662;28;20005;-67
2022/09/03 06:52:14;;;;;;;;;;;;;;;20.43;48.81;95247.09;5071049;28;20362;-66
2022/09/03 06:54:39;;;;;;;;;;;;;;;20.48;49.08;95247.59;5066738;28;20013;-66
2022/09/03 06:57:04;;;;;;;;;;;;;;;20.49;49.21;95248.38;5071532;28;20012;-67
2022/09/03 06:59:30;;;;;;;;;;;;;;;20.50;49.46;95244.53;5088795;28;20027;-67
2022/09/03 07:01:57;;;;;;;;;;;;;;;20.50;49.81;95239.91;5088795;28;20025;-67
2022/09/03 07:04:23;;;;;;;;;;;;;;;20.57;49.82;95238.44;5058035;28;20492;-66
2022/09/03 07:06:49;;;;;;;;;;;;;;;20.68;49.66;95242.88;5069380;28;20010;-65
2022/09/03 07:09:16;;;;;;;;;;;;;;;20.76;49.04;95255.31;5053139;28;20036;-65
2022/09/03 07:11:45;;;;;;;;;;;;;;;20.83;49.25;95256.53;5073177;28;20055;-66
2022/09/03 07:14:11;;;;;;;;;;;;;;;20.85;49.22;95257.75;5086735;28;20237;-66
2022/09/03 07:16:36;;;;;;;;;;;;;;;20.93;49.18;95264.78;5063528;28;20510;-65
2022/09/03 07:19:03;;;;;;;;;;;;;;;21.00;49.15;95254.06;5073459;28;20096;-66
2022/09/03 07:21:29;;;;;;;;;;;;;;;21.09;48.83;95261.13;5073034;28;20009;-66
2022/09/03 07:23:55;;;;;;;;;;;;;;;21.07;48.28;95247.97;5072717;28;20082;-66
2022/09/03 07:26:20;;;;;;;;;;;;;;;21.12;47.87;95252.28;5072758;28;20482;-66
2022/09/03 07:28:46;;;;;;;;;;;;;;;21.17;48.24;95252.72;5081619;28;20505;-65
2022/09/03 07:31:13;;;;;;;;;;;;;;;21.27;47.96;95249.38;5092939;28;20005;-66
2022/09/03 07:33:39;;;;;;;;;;;;;;;21.36;47.93;95251.03;5090246;28;20013;-67
2022/09/03 07:36:08;;;;;;;;;;;;;;;21.41;48.09;95254.19;5092639;28;20012;-66
2022/09/03 07:38:34;;;;;;;;;;;;;;;21.45;48.15;95254.25;5092704;28;20017;-66
2022/09/03 07:41:00;;;;;;;;;;;;;;;21.41;48.53;95250.72;5092618;28;20012;-66
2022/09/03 07:43:27;;;;;;;;;;;;;;;21.42;48.61;95260.38;5091384;28;20009;-66
2022/09/03 07:45:53;;;;;;;;;;;;;;;21.43;49.10;95260.00;5073838;28;20019;-66
2022/09/03 07:48:18;;;;;;;;;;;;;;;21.50;49.37;95251.97;5091526;28;20013;-66
2022/09/03 07:50:44;;;;;;;;;;;;;;;21.57;49.80;95255.91;5091985;28;20005;-66
2022/09/03 07:53:09;;;;;;;;;;;;;;;21.68;49.99;95257.56;5092204;28;20009;-65
2022/09/03 07:55:34;;;;;;;;;;;;;;;21.85;49.87;95256.16;5092517;28;20672;-64
2022/09/03 07:58:00;;;;;;;;;;;;;;;22.03;49.71;95259.03;5073434;28;20040;-63
2022/09/03 08:00:25;;;;;;;;;;;;;;;22.16;49.67;95254.94;5092658;28;20656;-64
2022/09/03 08:02:51;;;;;;;;;;;;;;;22.33;49.48;95255.44;5074547;28;20109;-63
2022/09/03 08:05:19;;;;;;;;;;;;;;;22.54;49.72;95258.28;5054169;28;20031;-63
2022/09/03 08:07:44;;;;;;;;;;;;;;;22.79;49.45;95261.16;5072065;28;20672;-65
2022/09/03 08:10:09;;;;;;;;;;;;;;;23.05;49.07;95263.63;5071974;28;20123;-64
2022/09/03 08:12:34;;;;;;;;;;;;;;;23.28;48.77;95254.41;5085013;28;20492;-66
2022/09/03 08:15:00;;;;;;;;;;;;;;;23.66;48.66;95263.09;5073516;28;20065;-66
2022/09/03 08:17:25;;;;;;;;;;;;;;;24.02;47.53;95261.97;5091128;28;20013;-65
2022/09/03 08:19:50;;;;;;;;;;;;;;;24.48;46.83;95260.44;5091187;28;20012;-65
2022/09/03 08:22:15;;;;;;;;;;;;;;;24.88;46.09;95262.69;5098016;28;20016;-65
2022/09/03 08:24:41;;;;;;;;;;;;;;;25.14;45.45;95260.69;5091923;28;20044;-65
2022/09/03 08:27:06;;;;;;;;;;;;;;;24.53;44.41;95129.50;5091098;28;20107;-66
2022/09/03 08:29:32;;;;;;;;;;;;;;;25.62;44.50;95262.78;5091750;28;20005;-66
2022/09/03 08:31:57;;;;;;;;;;;;;;;25.74;43.96;95261.53;5090948;28;20493;-65
2022/09/03 08:34:23;;;;;;;;;;;;;;;25.97;43.63;95258.31;5069512;28;20023;-66
2022/09/03 08:36:49;;;;;;;;;;;;;;;26.05;43.86;95262.53;5092241;28;20074;-65
2022/09/03 08:39:14;;;;;;;;;;;;;;;26.28;43.20;95264.72;5092081;28;20033;-67
2022/09/03 08:41:51;;;;;;;;;;;;;;;26.56;42.67;95252.78;5074381;28;20046;-66
2022/09/03 08:44:23;;;;;;;;;;;;;;;26.73;41.66;95246.41;5064987;28;20095;-68
2022/09/03 08:46:56;;;;;;;;;;;;;;;26.70;42.67;95244.47;5071683;28;20012;-67
2022/09/03 08:49:33;;;;;;;;;;;;;;;26.66;42.61;95251.91;5085599;28;20013;-65
2022/09/03 08:52:00;;;;;;;;;;;;;;;26.67;42.11;95253.47;5053213;28;20627;-66
2022/09/03 08:54:28;;;;;;;;;;;;;;;26.73;42.19;95254.59;5053425;28;20013;-66
2022/09/03 08:56:55;;;;;;;;;;;;;;;26.89;42.75;95252.06;5061744;28;20035;-67
2022/09/03 08:59:21;;;;;;;;;;;;;;;27.14;42.09;95245.59;5091856;28;20009;-65
2022/09/03 09:01:54;;;;;;;;;;;;;;;27.62;41.55;95247.31;5092000;28;20015;-65
2022/09/03 09:04:19;;;;;;;;;;;;;;;27.90;40.96;95238.75;5085596;28;20066;-67
2022/09/03 09:06:44;;;;;;;;;;;;;;;28.15;39.50;95248.50;5069372;28;20009;-66
2022/09/03 09:09:21;;;;;;;;;;;;;;;28.41;39.46;95244.22;5071316;28;20012;-67
2022/09/03 09:11:55;;;;;;;;;;;;;;;28.53;38.85;95240.09;5079174;28;20013;-68
2022/09/03 09:14:23;;;;;;;;;;;;;;;28.61;39.04;95236.03;5090608;28;20358;-66
2022/09/03 09:16:58;;;;;;;;;;;;;;;28.67;39.09;95232.41;5087079;28;20017;-66
2022/09/03 09:19:42;;;;;;;;;;;;;;;28.85;39.07;95225.81;5072209;28;20017;-66
2022/09/03 09:22:09;;;;;;;;;;;;;;;29.05;38.20;95223.91;5052935;28;20054;-67
2022/09/03 09:24:38;;;;;;;;;;;;;;;29.30;37.51;95226.13;5071101;28;20013;-66
2022/09/03 09:27:04;;;;;;;;;;;;;;;29.56;37.38;95229.13;5060869;28;20168;-66
2022/09/03 09:29:37;;;;;;;;;;;;;;;29.08;35.35;95223.06;5073166;28;20070;-67
2022/09/03 09:32:04;;;;;;;;;;;;;;;27.89;36.19;95228.19;5089559;28;20005;-67
2022/09/03 09:34:36;;;;;;;;;;;;;;;27.15;38.86;95231.53;5057904;28;20473;-67
2022/09/03 09:37:03;;;;;;;;;;;;;;;26.42;40.12;95227.22;5072600;28;20013;-67
2022/09/03 09:39:28;;;;;;;;;;;;;;;27.51;39.42;95213.91;5090993;28;20086;-67
2022/09/03 09:41:57;;;;;;;;;;;;;;;28.34;38.39;95223.22;5090379;28;20602;-68
2022/09/03 09:44:24;;;;;;;;;;;;;;;27.05;38.70;95231.63;5090253;28;20112;-67
2022/09/03 09:46:50;;;;;;;;;;;;;;;26.89;38.96;95226.72;5090563;28;20013;-70
2022/09/03 09:49:31;;;;;;;;;;;;;;;28.16;37.30;95225.44;5070841;28;20012;-67
2022/09/03 09:52:01;;;;;;;;;;;;;;;25.25;42.97;95230.69;5085798;28;20518;-67
2022/09/03 09:54:26;;;;;;;;;;;;;;;24.42;44.23;95229.38;5070255;28;20087;-65
2022/09/03 09:57:05;;;;;;;;;;;;;;;23.94;46.23;95232.44;5054955;28;20600;-65
2022/09/03 09:59:32;;;;;;;;;;;;;;;24.46;45.23;95227.41;5072450;28;20009;-65
2022/09/03 10:02:17;;;;;;;;;;;;;;;25.77;43.21;95228.88;5067386;28;20010;-65
2022/09/03 10:04:44;;;;;;;;;;;;;;;25.84;42.78;95219.88;5082937;28;20013;-66
2022/09/03 10:07:30;;;;;;;;;;;;;;;26.32;41.44;95227.28;5072403;28;20009;-66
2022/09/03 10:10:16;;;;;;;;;;;;;;;26.55;40.23;95227.47;5090229;28;20005;-66
2022/09/03 10:12:44;;;;;;;;;;;;;;;26.28;40.96;95224.56;5070604;28;20013;-65
2022/09/03 10:15:16;;;;;;;;;;;;;;;26.95;40.14;95234.06;5072074;28;20484;-65
2022/09/03 10:17:51;;;;;;;;;;;;;;;26.51;41.50;95225.94;5090300;28;20016;-65
2022/09/03 10:20:36;;;;;;;;;;;;;;;25.71;43.10;95222.28;5070217;28;20012;-65
2022/09/03 10:23:20;;;;;;;;;;;;;;;26.60;40.69;95218.06;5071017;28;20538;-65
2022/09/03 10:25:49;;;;;;;;;;;;;;;27.25;39.58;95218.91;5090612;28;20005;-66
2022/09/03 10:28:15;;;;;;;;;;;;;;;28.39;38.04;95217.25;5070456;28;20395;-65
2022/09/03 10:30:53;;;;;;;;;;;;;;;29.27;36.48;95222.25;5090183;28;20377;-65
2022/09/03 10:33:25;;;;;;;;;;;;;;;29.61;35.71;95221.19;5086084;28;20385;-66
2022/09/03 10:36:05;;;;;;;;;;;;;;;30.21;34.87;95221.00;5071135;28;20020;-67
2022/09/03 10:38:36;;;;;;;;;;;;;;;31.00;33.72;95211.50;5071808;28;20017;-65
2022/09/03 10:41:05;;;;;;;;;;;;;;;31.44;32.06;95223.63;5070181;28;20017;-65
2022/09/03 10:43:45;;;;;;;;;;;;;;;31.90;31.79;95204.97;5055530;28;20009;-65
2022/09/03 10:46:21;;;;;;;;;;;;;;;32.52;31.09;95202.59;5073571;28;20009;-65
2022/09/03 10:49:06;;;;;;;;;;;;;;;33.11;29.86;95200.13;5075471;28;20013;-65
2022/09/03 10:51:36;;;;;;;;;;;;;;;33.46;28.07;95191.78;5093371;28;20023;-65
2022/09/03 10:54:09;;;;;;;;;;;;;;;33.47;28.04;95194.09;5093096;28;20093;-65
2022/09/03 10:56:34;;;;;;;;;;;;;;;33.72;27.93;95190.38;5072632;28;20074;-65
2022/09/03 10:58:59;;;;;;;;;;;;;;;33.79;27.46;95203.16;5089394;28;20405;-65
2022/09/03 11:01:24;;;;;;;;;;;;;;;30.55;30.56;95215.03;5073639;28;20045;-66
2022/09/03 11:03:50;;;;;;;;;;;;;;;27.30;36.65;95212.22;5086849;28;20419;-65
2022/09/03 11:06:20;;;;;;;;;;;;;;;26.89;38.00;95215.81;5073489;28;20012;-65
2022/09/03 11:08:51;;;;;;;;;;;;;;;25.88;38.76;95212.44;5055756;28;20060;-65
2022/09/03 11:11:26;;;;;;;;;;;;;;;27.12;36.69;95223.38;5055645;28;20013;-65
2022/09/03 11:14:09;;;;;;;;;;;;;;;28.63;34.96;95189.88;5075021;28;20103;-65
2022/09/03 11:16:37;;;;;;;;;;;;;;;29.76;33.75;95188.75;5093562;28;20064;-66
2022/09/03 11:19:05;;;;;;;;;;;;;;;30.51;32.26;95187.69;5087877;28;20070;-65
2022/09/03 11:21:31;;;;;;;;;;;;;;;31.11;31.20;95179.00;5075164;28;20009;-65
2022/09/03 11:24:12;;;;;;;;;;;;;;;31.62;30.66;95172.84;5074840;28;20058;-66
2022/09/03 11:26:39;;;;;;;;;;;;;;;31.34;29.89;95168.97;5092382;28;20450;-65
2022/09/03 11:29:14;;;;;;;;;;;;;;;29.68;32.99;95177.16;5073192;28;20047;-66
2022/09/03 11:31:58;;;;;;;;;;;;;;;27.97;36.92;95175.75;5074995;28;21059;-64
2022/09/03 11:34:24;;;;;;;;;;;;;;;27.45;37.44;95178.84;5089572;28;20017;-65
2022/09/03 11:36:49;;;;;;;;;;;;;;;26.30;39.72;95189.50;5066746;28;20397;-65
2022/09/03 11:39:25;;;;;;;;;;;;;;;27.61;37.36;95182.91;5062493;28;20042;-65
2022/09/03 11:42:20;;;;;;;;;;;;;;;26.36;40.27;95176.19;5061774;28;20041;-65
2022/09/03 11:44:50;;;;;;;;;;;;;;;26.70;40.05;95178.97;5071734;28;20009;-65
2022/09/03 11:47:36;;;;;;;;;;;;;;;25.73;41.99;95181.75;5072724;28;20005;-65
2022/09/03 11:50:27;;;;;;;;;;;;;;;26.00;41.70;95171.09;5061615;28;20013;-65
2022/09/03 11:53:10;;;;;;;;;;;;;;;26.47;41.03;95170.69;5089311;28;20058;-65
2022/09/03 11:55:47;;;;;;;;;;;;;;;27.20;39.54;95157.34;5092713;28;20009;-65
2022/09/03 11:58:28;;;;;;;;;;;;;;;26.94;39.28;95163.50;5092472;28;20022;-65
2022/09/03 12:00:54;;;;;;;;;;;;;;;27.31;38.58;95154.47;5089358;28;20562;-65
2022/09/03 12:03:27;;;;;;;;;;;;;;;27.44;37.99;95157.41;5068085;28;20104;-65
2022/09/03 12:06:22;;;;;;;;;;;;;;;27.84;38.22;95160.31;5084816;28;20651;-65
2022/09/03 12:09:06;;;;;;;;;;;;;;;27.25;37.85;95150.66;5063761;28;20029;-66
2022/09/03 12:11:44;;;;;;;;;;;;;;;27.08;38.67;95154.41;5078194;28;20013;-66
2022/09/03 12:14:30;;;;;;;;;;;;;;;26.29;39.88;95151.72;5074149;28;20032;-65
2022/09/03 12:17:01;;;;;;;;;;;;;;;26.17;39.88;95158.47;5092835;28;20009;-65
2022/09/03 12:19:50;;;;;;;;;;;;;;;26.02;40.18;95151.59;5071572;28;20016;-66
2022/09/03 12:22:15;;;;;;;;;;;;;;;26.41;39.27;95160.19;5054038;28;20020;-66
2022/09/03 12:24:43;;;;;;;;;;;;;;;26.76;38.72;95154.75;5054293;28;20009;-66
2022/09/03 12:27:12;;;;;;;;;;;;;;;26.76;38.44;95155.53;5066611;28;20017;-65
2022/09/03 12:29:39;;;;;;;;;;;;;;;25.97;39.69;95150.09;5074335;28;20586;-66
2022/09/03 12:32:17;;;;;;;;;;;;;;;26.51;38.71;95144.13;5073011;28;20478;-65
2022/09/03 12:34:42;;;;;;;;;;;;;;;26.83;38.36;95150.00;5070632;28;20385;-65
2022/09/03 12:37:17;;;;;;;;;;;;;;;26.93;38.06;95140.13;5107860;28;20013;-64
2022/09/03 12:39:49;;;;;;;;;;;;;;;26.84;37.78;95145.31;5091717;28;20169;-64
2022/09/03 12:42:18;;;;;;;;;;;;;;;26.54;38.86;95140.59;5089381;28;20058;-65
2022/09/03 12:44:43;;;;;;;;;;;;;;;26.23;38.70;95145.94;5091094;28;20013;-65
2022/09/03 12:47:14;;;;;;;;;;;;;;;26.91;37.98;95140.53;5073757;28;20009;-64
2022/09/03 12:49:43;;;;;;;;;;;;;;;27.47;37.50;95143.69;5070639;28;21033;-64
2022/09/03 12:52:17;;;;;;;;;;;;;;;27.17;37.07;95127.34;5089935;28;20024;-64
2022/09/03 12:54:47;;;;;;;;;;;;;;;25.96;40.19;95140.38;5091525;28;20010;-64
2022/09/03 12:57:16;;;;;;;;;;;;;;;26.16;38.92;95129.66;5071924;28;20020;-64
2022/09/03 12:59:41;;;;;;;;;;;;;;;26.23;39.84;95117.91;5091466;28;20013;-64
2022/09/03 13:02:16;;;;;;;;;;;;;;;26.86;39.55;95110.94;5072951;28;20008;-64